Estações Meteorológicas Convencionais MB

Santa Marta
Data Hora VISIB (KM) Cobertura(OITAVOS) DD Vento(º) Intensidade (NÓS) TEMP DO AR (º) Temp do Ponto de Orvalho(ºC) Pressão (hPa) TEMP MAX (ºC) TEMP MIN (ºC)
30/05/2020 00:00 10/20 10 4 18.00 17.10 1017.80 22.00
29/05/2020 18:00 10/20 0 30 18 20.60 19.20 1017.00
29/05/2020 12:00 10/20 0 340 3 17.20 15.60 1020.10 14.70
28/05/2020 00:00 20/50 240 5 15.00 10.50 1020.50 18.00
27/05/2020 18:00 50 0 200 14 17.40 11.70 1019.40
27/05/2020 12:00 20/50 6 200 20 16.40 12.00 1019.40 13.80
26/05/2020 18:00 10/20 0 190 15 17.40 11.30 1012.00
26/05/2020 12:00 10/20 1 230 17 17.00 10.20 1013.10 12.60
25/05/2020 00:00 10/20 330 3 18.00 12.00 1009.80 21.80
23/05/2020 18:00 10/20 7 330 6 19.60 16.60 1008.00
23/05/2020 12:00 10/20 8 340 7 20.60 19.20 1009.80 20.00
22/05/2020 18:00 10/20 8 10 7 22.00 19.40 1007.70
20/05/2020 00:00 10/20 40 19 20.20 18.70 1021.80 22.90
19/05/2020 18:00 10/20 0 40 18 21.40 19.40 1021.20
19/05/2020 12:00 10/20 0 20 6 20.80 18.10 1025.20 17.50
18/05/2020 00:00 10/20 100 4 19.20 17.40 1019.20 26.70
17/05/2020 18:00 20/50 0 210 2 21.20 16.40 1017.50
17/05/2020 12:00 10/20 0 310 3 19.00 12.90 1019.10 15.10
16/05/2020 00:00 10/20 150 4 17.60 13.40 1020.20 20.60
15/05/2020 18:00 20/50 0 160 4 17.80 13.60 1020.00
15/05/2020 12:00 20/50 1 270 7 15.00 9.00 1023.70 11.00
15/05/2020 00:00 10/20 200 24 17.80 10.70 1021.70 20.30
14/05/2020 18:00 20/50 0 200 7 17.00 14.40 1019.50
14/05/2020 12:00 10/20 1 210 25 18.00 13.10 1019.30 15.00
11/05/2020 00:00 10/20 10 20 20.60 19.20 1015.80 24.80
10/05/2020 18:00 10/20 5 120 4 21.00 16.80 1017.20
10/05/2020 12:00 10/20 0 320 7 20.00 14.70 1019.40 18.10
10/05/2020 00:00 10/20 20 22 20.40 17.70 1020.50 23.60
09/05/2020 18:00 10/20 8 270 7 25.00 23.60 1013.70
09/05/2020 12:00 20/50 1 350 3 18.00 13.10 1023.70 14.60
06/05/2020 00:00 10/20 150 4 21.20 18.50 1012.00 23.80
05/05/2020 18:00 20/50 6 240 3 22.60 19.40 1010.50
05/05/2020 12:00 10/20 7 22.00 16.20 1011.00 18.00
03/05/2020 00:00 10/20 200 25 20.00 13.00 1021.00 22.00
02/05/2020 18:00 20/50 1 200 22 20.40 15.10 1019.00
02/05/2020 12:00 20/50 1 270 15 19.40 13.30 1019.70 16.40
01/05/2020 00:00 10/20 220 4 20.40 16.80 1017.30 23.60
30/04/2020 18:00 10/20 180 11 21.40 15.20 1015.50
30/04/2020 12:00 10/20 7 200 12 21.80 16.40 1017.20 20.30
29/04/2020 18:00 20/50 1 30 13 25.40 21.60 1014.00
29/04/2020 12:00 10/20 1 340 2 25.00 20.30 1018.00 21.00
27/04/2020 00:00 10/20 230 8 22.00 20.90 1024.50 25.80
26/04/2020 18:00 4/10 8 180 12 23.00 21.60 1022.10
26/04/2020 12:00 4/10 7 270 3 23.00 19.10 1021.90 19.00
26/04/2020 00:00 10/20 20 5 22.40 21.30 1019.00 25.60
25/04/2020 18:00 10/20 6 30 12 24.20 21.60 1017.10
25/04/2020 12:00 10/20 4 30 16 23.80 21.30 1018.20 22.30
23/04/2020 00:00 10/20 100 3 21.80 18.90 1017.90 26.40
22/04/2020 18:00 10/20 0 140 4 22.40 19.80 1017.00
22/04/2020 12:00 10/20 0 280 3 21.20 16.70 1018.70 18.30
21/04/2020 00:00 10/20 30 22 22.00 19.10 1019.00 25.00
20/04/2020 18:00 20/50 0 40 15 23.00 20.10 1019.00
20/04/2020 12:00 20/50 1 300 3 21.80 18.30 1022.70 17.00
19/04/2020 00:00 10/20 80 4 21.20 17.60 1025.00 23.30
18/04/2020 18:00 10/20 8 180 1 21.40 17.20 1024.80
18/04/2020 12:00 10/20 6 260 8 20.40 17.40 1025.60 18.00
18/04/2020 00:00 10/20 210 20 20.00 17.60 1025.00 18.60
17/04/2020 18:00 20/50 5 200 15 22.00 19.10 1025.00
17/04/2020 12:00 20/50 3 250 7 19.40 12.30 1025.20 16.00
15/04/2020 00:00 10/20 220 10 21.00 18.30 1010.00 26.00
14/04/2020 18:00 20/50 3 40 10 23.60 21.30 1005.20
14/04/2020 12:00 4/10 7 30 22 22.00 20.00 1009.20 19.80
14/04/2020 00:00 10/20 20 18 21.80 19.20 1013.00 24.20
13/04/2020 18:00 10/20 3 30 21 22.80 19.70 1015.10
13/04/2020 12:00 10/20 1 20 10 22.40 20.10 1019.00 19.40
11/04/2020 00:00 10/20 210 10 20.20 15.90 1017.10 22.00
10/04/2020 18:00 10/20 1 200 10 20.00 16.00 1017.00
10/04/2020 12:00 10/20 4 230 10 18.60 15.80 1018.00 14.80
08/04/2020 00:00 10/20 230 20 19.00 13.20 1018.60 21.10
07/04/2020 12:00 10/20 7 220 17 20.20 15.20 1018.30 19.30
07/04/2020 00:00 10/20 240 3 20.40 19.80 1015.00 23.90
06/04/2020 18:00 10/20 8 330 8 20.00 19.70 1012.80
06/04/2020 12:00 10/20 8 20 6 23.60 20.70 1013.20 21.60
06/04/2020 00:00 10/20 30 20 22.00 20.60 1016.00 25.60
05/04/2020 18:00 20/50 0 50 15 23.00 18.80 1015.70
05/04/2020 12:00 4/10 0 0 0 21.80 18.30 1017.50 18.20
02/04/2020 18:00 10/20 7 20 7 22.90 19.60 1007.00
02/04/2020 12:00 10/20 8 10 14 23.20 20.90 1010.40 21.00
02/04/2020 00:00 10/20 30 18 22.40 21.60 1013.80 25.50
01/04/2020 18:00 10/20 6 50 10 24.00 22.60 1014.90
01/04/2020 12:00 10/20 8 290 2 24.00 22.60 1017.50 22.00
30/03/2020 00:00 10/20 100 2 22.40 20.40 1017.10 25.00
29/03/2020 18:00 10/20 8 40 5 23.20 20.00 1016.10
29/03/2020 12:00 10/20 8 350 2 23.40 20.20 1017.50 20.40
29/03/2020 00:00 10/20 20 17 21.60 20.80 1015.80 24.60
28/03/2020 18:00 10/20 8 30 15 23.60 21.30 1015.60
28/03/2020 12:00 10/20 8 110 12 24.00 18.30 1018.20 20.80
25/03/2020 00:00 10/20 60 15 23.00 20.10 1020.00 27.40
24/03/2020 18:00 20/50 32.00 26.40 1010.20
24/03/2020 12:00 20/50 7 60 12 25.80 22.00 1022.30 22.60
24/03/2020 00:00 10/20 50 12 23.40 23.10 1020.30 27.90
23/03/2020 18:00 20/50 1 60 12 25.00 20.80 1020.60
20/03/2020 00:00 10/20 24.40 22.40 1008.80 29.80
19/03/2020 12:00 10/20 7 310 1 27.80 23.30 1009.10 23.00
19/03/2020 00:00 10/20 30 20 24.00 23.10 1010.00 26.00
18/03/2020 18:00 20/50 8 30 25 24.40 23.20 1010.50
18/03/2020 12:00 10/20 8 40 15 24.80 23.30 1014.70 22.00
16/03/2020 00:00 4/10 220 7 23.80 22.40 1015.00 27.60
15/03/2020 18:00 2/4 5 200 4 26.00 24.70 1013.00
15/03/2020 12:00 20/50 1 20 5 24.40 21.20 1014.00 21.00